Time;durP1;ratioP1;P1;durP2;ratioP2;P2;SDS_P1;SDS_P2;PMS_P1;PMS_P2;Temp;Humidity;BMP_temperature;BMP_pressure;BME280_temperature;BME280_humidity;BME280_pressure;Samples;Min_cycle;Max_cycle;Signal;HPM_P1;HPM_P2
2022/01/09 00:01:16;;;;;;;13.95;5.50;;;;;;;4.76;100.00;98781.59;5050280;28;20352;-88
2022/01/09 00:03:41;;;;;;;12.57;5.20;;;;;;;4.78;100.00;98796.03;5050332;28;20040;-87
2022/01/09 00:06:08;;;;;;;13.60;5.73;;;;;;;4.78;100.00;98795.19;5049012;28;20025;-87
2022/01/09 00:08:34;;;;;;;10.50;5.22;;;;;;;4.78;100.00;98800.34;5056838;28;20329;-87
2022/01/09 00:10:59;;;;;;;16.52;5.93;;;;;;;4.78;100.00;98802.91;5048105;28;20025;-87
2022/01/09 00:13:24;;;;;;;15.57;7.05;;;;;;;4.79;100.00;98802.00;5066639;28;20016;-87
2022/01/09 00:15:50;;;;;;;26.90;10.30;;;;;;;4.79;100.00;98809.72;5068222;28;20595;-87
2022/01/09 00:18:15;;;;;;;25.20;8.20;;;;;;;4.75;100.00;98818.41;5058180;28;20336;-87
2022/01/09 00:20:40;;;;;;;19.48;8.55;;;;;;;4.77;100.00;98832.03;5060349;28;20387;-87
2022/01/09 00:23:06;;;;;;;17.30;8.10;;;;;;;4.75;100.00;98847.47;5055517;28;20086;-87
2022/01/09 00:25:31;;;;;;;16.30;7.03;;;;;;;4.80;100.00;98856.75;5062392;28;20386;-87
2022/01/09 00:27:56;;;;;;;13.45;6.88;;;;;;;4.81;100.00;98863.56;5062593;28;20135;-87
2022/01/09 00:30:23;;;;;;;17.48;7.63;;;;;;;4.83;100.00;98874.63;5054537;28;20025;-87
2022/01/09 00:32:49;;;;;;;16.83;7.65;;;;;;;4.84;100.00;98889.16;5062466;28;20037;-87
2022/01/09 00:35:15;;;;;;;18.30;8.63;;;;;;;4.81;100.00;98879.81;5065975;28;20032;-88
2022/01/09 00:37:41;;;;;;;18.20;8.38;;;;;;;4.87;100.00;98896.72;5068668;28;20035;-88
2022/01/09 00:40:08;;;;;;;16.17;6.82;;;;;;;4.83;100.00;98892.59;5068703;28;20052;-88
2022/01/09 00:42:33;;;;;;;16.40;6.78;;;;;;;4.84;100.00;98902.81;5064999;28;20036;-88
2022/01/09 00:44:59;;;;;;;17.40;6.13;;;;;;;4.81;100.00;98910.59;5069580;28;20402;-88
2022/01/09 00:47:24;;;;;;;15.13;5.65;;;;;;;4.82;100.00;98903.75;5066749;28;20035;-88
2022/01/09 00:49:49;;;;;;;14.63;4.32;;;;;;;4.78;100.00;98922.72;5063146;28;20060;-87
2022/01/09 00:52:15;;;;;;;22.65;4.75;;;;;;;4.77;100.00;98934.69;5071780;28;20116;-88
2022/01/09 00:54:40;;;;;;;21.65;5.00;;;;;;;4.78;100.00;98935.53;5063123;28;20124;-87
2022/01/09 00:57:06;;;;;;;15.30;3.83;;;;;;;4.81;100.00;98955.97;5065139;28;20059;-87
2022/01/09 00:59:31;;;;;;;25.13;4.00;;;;;;;4.78;100.00;98938.13;5066805;28;20032;-87
2022/01/09 01:01:56;;;;;;;28.42;3.75;;;;;;;4.77;100.00;98960.38;5071499;28;20016;-87
2022/01/09 01:04:22;;;;;;;36.45;4.03;;;;;;;4.74;100.00;98971.56;5064856;28;20483;-87
2022/01/09 01:06:49;;;;;;;31.90;4.03;;;;;;;4.73;100.00;98984.41;5070487;28;20498;-86
2022/01/09 01:09:14;;;;;;;35.78;4.70;;;;;;;4.65;100.00;98983.81;5063846;28;20403;-86
2022/01/09 01:11:40;;;;;;;35.15;3.58;;;;;;;4.58;100.00;98985.72;5067117;28;20471;-86
2022/01/09 01:14:05;;;;;;;34.78;3.58;;;;;;;4.54;100.00;98984.13;5072569;28;20024;-87
2022/01/09 01:16:31;;;;;;;31.65;3.45;;;;;;;4.46;100.00;98986.06;5072807;28;20114;-86
2022/01/09 01:18:56;;;;;;;45.28;4.10;;;;;;;4.45;100.00;98998.94;5067424;28;20052;-86
2022/01/09 01:21:23;;;;;;;40.17;4.28;;;;;;;4.50;100.00;99013.34;5058334;28;20079;-86
2022/01/09 01:23:50;;;;;;;45.33;4.90;;;;;;;4.47;100.00;99021.09;5061603;28;20050;-86
2022/01/09 01:26:15;;;;;;;36.13;3.63;;;;;;;4.41;100.00;99012.75;5072639;28;20040;-86
2022/01/09 01:28:40;;;;;;;32.90;3.47;;;;;;;4.39;100.00;99017.91;5071479;28;20020;-86
2022/01/09 01:31:05;;;;;;;28.23;3.42;;;;;;;4.38;100.00;99024.75;5052118;28;20470;-86
2022/01/09 01:33:31;;;;;;;38.78;3.83;;;;;;;4.40;100.00;99040.13;5060186;28;20017;-86
2022/01/09 01:35:56;;;;;;;35.65;3.35;;;;;;;4.40;100.00;99034.16;5051802;28;20049;-86
2022/01/09 01:38:21;;;;;;;37.53;4.40;;;;;;;4.44;100.00;99057.09;5070925;28;20020;-85
2022/01/09 01:40:47;;;;;;;46.25;4.95;;;;;;;4.47;100.00;99051.06;5071622;28;20162;-85
2022/01/09 01:43:12;;;;;;;39.03;3.80;;;;;;;4.48;100.00;99043.31;5069275;28;20035;-85
2022/01/09 01:45:38;;;;;;;51.67;4.97;;;;;;;4.46;100.00;99047.63;5071707;28;20028;-85
2022/01/09 01:48:06;;;;;;;45.00;5.20;;;;;;;4.57;100.00;99055.88;5065809;28;20028;-85
2022/01/09 01:50:37;;;;;;;47.17;5.05;;;;;;;4.61;100.00;99066.91;5052346;28;20033;-85
2022/01/09 01:53:06;;;;;;;46.08;4.80;;;;;;;4.59;100.00;99077.19;5066429;28;20032;-85
2022/01/09 01:55:36;;;;;;;46.67;4.80;;;;;;;4.61;100.00;99084.88;5069755;28;20459;-85
2022/01/09 01:58:02;;;;;;;46.10;5.47;;;;;;;4.63;100.00;99098.50;5067897;28;20037;-85
2022/01/09 02:00:27;;;;;;;49.78;4.70;;;;;;;4.64;100.00;99095.88;5069278;28;20028;-84
2022/01/09 02:02:52;;;;;;;46.55;5.65;;;;;;;4.61;100.00;99093.41;5069638;28;20479;-85
2022/01/09 02:05:18;;;;;;;49.47;5.22;;;;;;;4.65;100.00;99106.97;5071054;28;20040;-84
2022/01/09 02:07:43;;;;;;;60.47;5.70;;;;;;;4.66;100.00;99108.66;5063582;28;20061;-85
2022/01/09 02:10:09;;;;;;;45.05;5.05;;;;;;;4.67;100.00;99123.19;5065301;28;20409;-85
2022/01/09 02:12:40;;;;;;;50.17;5.47;;;;;;;4.67;100.00;99128.31;5059540;28;20087;-84
2022/01/09 02:15:38;;;;;;;47.10;6.60;;;;;;;4.65;100.00;99128.34;5055405;28;20028;-85
2022/01/09 02:18:10;;;;;;;51.65;5.93;;;;;;;4.69;100.00;99134.25;5066307;28;20406;-84
2022/01/09 02:20:36;;;;;;;46.50;5.00;;;;;;;4.71;100.00;99158.97;5070794;28;20499;-85
2022/01/09 02:23:05;;;;;;;44.20;5.00;;;;;;;4.70;100.00;99152.19;5067317;28;20025;-85
2022/01/09 02:25:31;;;;;;;48.03;6.78;;;;;;;4.71;100.00;99165.81;5068251;28;20451;-84
2022/01/09 02:27:56;;;;;;;51.40;5.65;;;;;;;4.71;100.00;99174.38;5055840;28;20499;-85
2022/01/09 02:30:22;;;;;;;39.58;5.30;;;;;;;4.72;100.00;99173.50;5068038;28;20036;-84
2022/01/09 02:32:47;;;;;;;47.47;5.68;;;;;;;4.70;100.00;99175.28;5069626;28;20056;-84
2022/01/09 02:35:12;;;;;;;44.95;5.20;;;;;;;4.72;100.00;99182.91;5069990;28;20028;-85
2022/01/09 02:37:38;;;;;;;57.40;5.70;;;;;;;4.70;100.00;99194.97;5068759;28;20479;-85
2022/01/09 02:40:07;;;;;;;45.70;5.53;;;;;;;4.67;100.00;99198.44;5069969;28;20044;-85
2022/01/09 02:42:33;;;;;;;56.28;6.25;;;;;;;4.66;100.00;99195.91;5059652;28;20124;-85
2022/01/09 02:44:59;;;;;;;46.42;6.10;;;;;;;4.69;100.00;99206.94;5069445;28;20408;-85
2022/01/09 02:47:28;;;;;;;44.45;5.78;;;;;;;4.65;100.00;99218.16;5063218;28;20086;-85
2022/01/09 02:49:54;;;;;;;38.25;5.72;;;;;;;4.63;100.00;99216.53;5067107;28;20020;-85
2022/01/09 02:52:34;;;;;;;46.05;5.70;;;;;;;4.64;100.00;99225.91;5068095;28;20036;-85
2022/01/09 02:55:12;;;;;;;40.08;5.53;;;;;;;4.64;100.00;99223.34;5062730;28;20025;-85
2022/01/09 02:57:43;;;;;;;36.95;5.85;;;;;;;4.64;100.00;99237.00;5070480;28;20025;-85
2022/01/09 03:00:15;;;;;;;31.90;5.00;;;;;;;4.61;100.00;99231.97;5068489;28;20451;-85
2022/01/09 03:02:40;;;;;;;50.67;5.75;;;;;;;4.60;100.00;99240.53;5066058;28;20032;-85
2022/01/09 03:05:06;;;;;;;31.10;4.97;;;;;;;4.58;100.00;99247.41;5068363;28;20028;-85
2022/01/09 03:07:32;;;;;;;45.22;4.60;;;;;;;4.56;100.00;99251.78;5071040;28;20027;-85
2022/01/09 03:09:57;;;;;;;36.95;4.72;;;;;;;4.54;100.00;99265.50;5057978;28;20024;-85
2022/01/09 03:12:23;;;;;;;37.22;4.70;;;;;;;4.54;100.00;99263.78;5068912;28;20060;-84
2022/01/09 03:14:49;;;;;;;29.98;4.30;;;;;;;4.53;100.00;99274.06;5069102;28;20028;-85
2022/01/09 03:17:14;;;;;;;42.50;4.70;;;;;;;4.49;100.00;99278.47;5055967;28;20107;-86
2022/01/09 03:19:39;;;;;;;42.35;4.82;;;;;;;4.50;100.00;99295.53;5068748;28;20029;-85
2022/01/09 03:22:05;;;;;;;34.22;4.72;;;;;;;4.47;100.00;99289.63;5053601;28;20043;-85
2022/01/09 03:24:30;;;;;;;33.83;4.40;;;;;;;4.44;100.00;99300.78;5063776;28;20150;-85
2022/01/09 03:26:55;;;;;;;29.75;4.45;;;;;;;4.47;100.00;99305.88;5068414;28;20177;-85
2022/01/09 03:29:21;;;;;;;27.27;3.90;;;;;;;4.41;100.00;99303.44;5068373;28;20034;-84
2022/01/09 03:31:46;;;;;;;44.28;5.30;;;;;;;4.43;100.00;99313.69;5069582;28;20033;-85
2022/01/09 03:34:11;;;;;;;33.78;4.35;;;;;;;4.42;100.00;99312.00;5067078;28;20020;-85
2022/01/09 03:36:37;;;;;;;35.72;4.28;;;;;;;4.38;100.00;99314.59;5067263;28;20028;-86
2022/01/09 03:39:02;;;;;;;30.48;3.88;;;;;;;4.41;100.00;99323.97;5068682;28;20105;-85
2022/01/09 03:41:27;;;;;;;29.08;3.70;;;;;;;4.42;100.00;99323.09;5068704;28;20344;-86
2022/01/09 03:43:53;;;;;;;31.95;3.97;;;;;;;4.40;100.00;99336.81;5065957;28;20052;-84
2022/01/09 03:46:18;;;;;;;32.33;3.88;;;;;;;4.42;100.00;99343.63;5067240;28;20119;-85
2022/01/09 03:48:43;;;;;;;35.80;4.30;;;;;;;4.36;100.00;99354.03;5057913;28;20016;-85
2022/01/09 03:51:10;;;;;;;28.90;4.05;;;;;;;4.32;100.00;99358.34;5068297;28;20415;-86
2022/01/09 03:53:36;;;;;;;35.75;4.28;;;;;;;4.32;100.00;99370.34;5066105;28;20028;-85
2022/01/09 03:56:01;;;;;;;27.52;3.45;;;;;;;4.25;100.00;99369.63;5064184;28;20032;-85
2022/01/09 03:58:26;;;;;;;39.92;4.97;;;;;;;4.28;100.00;99376.41;5059987;28;20033;-86
2022/01/09 04:00:52;;;;;;;25.75;3.50;;;;;;;4.29;100.00;99385.81;5068569;28;20097;-85
2022/01/09 04:03:17;;;;;;;32.72;4.07;;;;;;;4.24;100.00;99379.91;5066070;28;20058;-86
2022/01/09 04:05:42;;;;;;;34.30;4.03;;;;;;;4.25;100.00;99395.28;5062777;28;20140;-86
2022/01/09 04:08:08;;;;;;;33.53;4.30;;;;;;;4.19;100.00;99397.13;5064708;28;20390;-85
2022/01/09 04:10:40;;;;;;;33.10;3.35;;;;;;;4.20;100.00;99401.38;5061469;28;20032;-85
2022/01/09 04:13:05;;;;;;;22.98;3.03;;;;;;;4.18;100.00;99421.06;5068671;28;20024;-86
2022/01/09 04:15:31;;;;;;;21.90;3.30;;;;;;;4.15;100.00;99416.03;5065071;28;20139;-86
2022/01/09 04:17:57;;;;;;;21.88;3.10;;;;;;;4.15;100.00;99424.56;5062233;28;20395;-86
2022/01/09 04:20:27;;;;;;;26.85;3.00;;;;;;;4.13;100.00;99428.03;5067969;28;20039;-84
2022/01/09 04:22:52;;;;;;;22.58;3.50;;;;;;;4.08;100.00;99440.09;5071979;28;20399;-84
2022/01/09 04:25:18;;;;;;;24.00;3.03;;;;;;;4.10;100.00;99453.72;5066651;28;20502;-86
2022/01/09 04:27:44;;;;;;;23.08;3.30;;;;;;;4.05;100.00;99450.41;5053214;28;20119;-85
2022/01/09 04:30:11;;;;;;;20.25;3.15;;;;;;;3.97;100.00;99461.66;5067354;28;20101;-85
2022/01/09 04:32:36;;;;;;;23.67;3.10;;;;;;;3.97;100.00;99463.38;5072747;28;20032;-85
2022/01/09 04:35:03;;;;;;;20.55;3.30;;;;;;;3.91;100.00;99468.63;5071935;28;20119;-87
2022/01/09 04:37:29;;;;;;;16.83;2.50;;;;;;;3.88;100.00;99471.25;5072008;28;20039;-85
2022/01/09 04:39:55;;;;;;;20.42;3.03;;;;;;;3.85;100.00;99484.97;5069038;28;20384;-86
2022/01/09 04:42:26;;;;;;;16.17;2.47;;;;;;;3.86;100.00;99471.28;5071029;28;20372;-86
2022/01/09 04:44:51;;;;;;;17.20;2.60;;;;;;;3.87;100.00;99487.50;5069525;28;20034;-86
2022/01/09 04:47:17;;;;;;;28.27;3.33;;;;;;;3.82;100.00;99497.81;5071915;28;20028;-86
2022/01/09 04:49:45;;;;;;;24.92;3.55;;;;;;;3.84;100.00;99502.91;5063096;28;20028;-86
2022/01/09 04:52:15;;;;;;;22.98;3.35;;;;;;;3.79;100.00;99512.41;5070606;28;20020;-86
2022/01/09 04:54:41;;;;;;;20.98;3.25;;;;;;;3.73;100.00;99518.50;5059459;28;20060;-86
2022/01/09 04:57:06;;;;;;;23.65;3.45;;;;;;;3.71;100.00;99517.66;5072586;28;20066;-86
2022/01/09 04:59:32;;;;;;;18.65;3.25;;;;;;;3.69;100.00;99523.69;5067465;28;20032;-86
2022/01/09 05:01:57;;;;;;;23.42;3.00;;;;;;;3.63;100.00;99528.91;5071766;28;20021;-87
2022/01/09 05:04:22;;;;;;;17.73;2.88;;;;;;;3.65;100.00;99542.56;5060090;28;20028;-87
2022/01/09 05:06:48;;;;;;;22.25;2.75;;;;;;;3.61;100.00;99544.34;5062519;28;20032;-85
2022/01/09 05:09:13;;;;;;;30.17;3.40;;;;;;;3.59;100.00;99558.88;5070156;28;20525;-87
2022/01/09 05:11:39;;;;;;;21.13;3.25;;;;;;;3.54;100.00;99563.25;5069817;28;20420;-87
2022/01/09 05:14:04;;;;;;;23.35;3.33;;;;;;;3.48;100.00;99564.16;5071655;28;20024;-87
2022/01/09 05:16:30;;;;;;;20.15;2.72;;;;;;;3.49;100.00;99573.53;5070025;28;20470;-86
2022/01/09 05:19:02;;;;;;;21.63;3.63;;;;;;;3.46;100.00;99581.28;5066647;28;20024;-86
2022/01/09 05:21:28;;;;;;;18.58;3.20;;;;;;;3.43;100.00;99588.16;5067382;28;20029;-87
2022/01/09 05:23:53;;;;;;;19.75;2.85;;;;;;;3.39;100.00;99597.59;5068591;28;20081;-87
2022/01/09 05:26:19;;;;;;;22.02;3.22;;;;;;;3.35;100.00;99589.97;5052036;28;20048;-87
2022/01/09 05:28:44;;;;;;;16.10;2.95;;;;;;;3.32;100.00;99610.53;5057142;28;20039;-87
2022/01/09 05:31:09;;;;;;;18.08;3.00;;;;;;;3.29;100.00;99602.88;5057154;28;20051;-87
2022/01/09 05:33:35;;;;;;;20.05;3.10;;;;;;;3.30;100.00;99610.53;5058572;28;21439;-87
2022/01/09 05:36:00;;;;;;;14.25;3.45;;;;;;;3.28;100.00;99621.66;5055778;28;20102;-87
2022/01/09 05:38:26;;;;;;;21.98;3.67;;;;;;;3.30;100.00;99630.16;5064880;28;20043;-87
2022/01/09 05:40:51;;;;;;;19.25;3.97;;;;;;;3.29;100.00;99637.00;5064892;28;20032;-87
2022/01/09 05:43:17;;;;;;;15.55;2.70;;;;;;;3.30;100.00;99635.28;5061335;28;20024;-87
2022/01/09 05:45:43;;;;;;;19.00;3.53;;;;;;;3.26;100.00;99629.38;5060333;28;20078;-87
2022/01/09 05:48:08;;;;;;;31.10;3.50;;;;;;;3.24;100.00;99633.66;5061677;28;20028;-87
2022/01/09 05:50:34;;;;;;;19.67;3.10;;;;;;;3.23;100.00;99628.56;5070633;28;20032;-87
2022/01/09 05:53:00;;;;;;;20.35;3.28;;;;;;;3.22;100.00;99645.63;5063482;28;20408;-87
2022/01/09 05:55:26;;;;;;;17.50;3.22;;;;;;;3.19;100.00;99640.56;5056114;28;20580;-87
2022/01/09 05:57:51;;;;;;;32.92;3.70;;;;;;;3.17;100.00;99642.28;5069524;28;20032;-88
2022/01/09 06:00:17;;;;;;;12.02;2.20;;;;;;;3.15;100.00;99649.13;5069739;28;20028;-87
2022/01/09 06:02:42;;;;;;;20.70;3.15;;;;;;;3.17;100.00;99662.78;5069095;28;20031;-87
2022/01/09 06:05:08;;;;;;;20.35;3.30;;;;;;;3.18;100.00;99664.47;5071098;28;20106;-87
2022/01/09 06:07:34;;;;;;;17.30;3.63;;;;;;;3.23;100.00;99666.97;5069261;28;20419;-87
2022/01/09 06:09:59;;;;;;;18.98;3.03;;;;;;;3.18;100.00;99669.59;5071427;28;20376;-87
2022/01/09 06:12:24;;;;;;;21.88;3.05;;;;;;;3.18;100.00;99678.13;5068952;28;20170;-88
2022/01/09 06:14:51;;;;;;;16.77;3.13;;;;;;;3.15;100.00;99673.03;5064970;28;20058;-87
2022/01/09 06:17:17;;;;;;;22.02;4.03;;;;;;;3.14;100.00;99673.91;5065584;28;20056;-88
2022/01/09 06:19:42;;;;;;;21.25;3.47;;;;;;;3.08;100.00;99679.09;5064005;28;20125;-86
2022/01/09 06:22:07;;;;;;;16.38;3.45;;;;;;;3.08;100.00;99697.00;5055497;28;20025;-87
2022/01/09 06:24:32;;;;;;;16.75;3.20;;;;;;;3.07;100.00;99690.19;5068747;28;20035;-87
2022/01/09 06:26:58;;;;;;;19.35;3.42;;;;;;;2.99;100.00;99689.47;5068366;28;20035;-87
2022/01/09 06:29:23;;;;;;;16.27;2.90;;;;;;;3.03;100.00;99698.78;5068474;28;20056;-87
2022/01/09 06:31:48;;;;;;;20.00;3.45;;;;;;;3.01;100.00;99690.28;5066134;28;20025;-87
2022/01/09 06:34:14;;;;;;;19.00;3.90;;;;;;;3.04;100.00;99703.03;5041337;28;20392;-87
2022/01/09 06:36:40;;;;;;;17.52;3.30;;;;;;;3.06;100.00;99696.22;5070423;28;20105;-87
2022/01/09 06:39:05;;;;;;;17.67;4.05;;;;;;;3.11;100.00;99707.22;5061080;28;20392;-87
2022/01/09 06:41:32;;;;;;;21.17;3.83;;;;;;;3.13;100.00;99717.47;5056208;28;20687;-87
2022/01/09 06:43:58;;;;;;;21.88;3.65;;;;;;;3.17;100.00;99726.78;5063262;28;20039;-88
2022/01/09 06:46:24;;;;;;;15.02;3.28;;;;;;;3.20;100.00;99718.22;5054902;28;20021;-86
2022/01/09 06:48:49;;;;;;;15.77;3.03;;;;;;;3.27;100.00;99719.84;5061190;28;20028;-87
2022/01/09 06:51:14;;;;;;;19.50;3.97;;;;;;;3.35;100.00;99739.34;5068537;28;20032;-87
2022/01/09 06:53:39;;;;;;;14.90;3.40;;;;;;;3.39;100.00;99738.47;5053000;28;20029;-87
2022/01/09 06:56:05;;;;;;;13.98;3.28;;;;;;;3.38;100.00;99748.72;5077291;28;20017;-86
2022/01/09 06:58:31;;;;;;;18.35;3.30;;;;;;;3.36;100.00;99756.44;5064939;28;20055;-88
2022/01/09 07:00:57;;;;;;;12.05;3.05;;;;;;;3.32;100.00;99757.34;5063669;28;20354;-87
2022/01/09 07:03:22;;;;;;;12.38;3.63;;;;;;;3.34;100.00;99762.44;5066475;28;20154;-86
2022/01/09 07:05:49;;;;;;;12.60;2.90;;;;;;;3.36;100.00;99763.25;5063829;28;20107;-83
2022/01/09 07:08:14;;;;;;;15.80;3.47;;;;;;;3.32;100.00;99762.47;5063786;28;20024;-86
2022/01/09 07:10:39;;;;;;;17.75;3.45;;;;;;;3.38;100.00;99771.78;5070193;28;20107;-85
2022/01/09 07:13:05;;;;;;;15.40;3.80;;;;;;;3.36;100.00;99773.50;5069483;28;20047;-85
2022/01/09 07:15:30;;;;;;;18.65;3.75;;;;;;;3.39;100.00;99782.00;5064215;28;20286;-85
2022/01/09 07:17:55;;;;;;;22.45;3.90;;;;;;;3.40;100.00;99790.53;5059052;28;20063;-84
2022/01/09 07:20:21;;;;;;;20.40;3.50;;;;;;;3.43;100.00;99791.34;5068875;28;20028;-83
2022/01/09 07:22:47;;;;;;;19.30;3.03;;;;;;;3.44;100.00;99787.91;5069457;28;20283;-84
2022/01/09 07:25:13;;;;;;;22.30;3.05;;;;;;;3.44;100.00;99793.03;5063817;28;20013;-95
2022/01/09 07:27:38;;;;;;;22.10;3.42;;;;;;;3.45;100.00;99797.31;5053529;28;20051;-82
2022/01/09 07:30:04;;;;;;;24.25;3.63;;;;;;;3.44;100.00;99797.31;5058637;28;20386;-91
2022/01/09 07:32:29;;;;;;;17.15;3.30;;;;;;;3.43;100.00;99804.16;5061942;28;20449;-83
2022/01/09 07:34:57;;;;;;;15.02;3.38;;;;;;;3.44;100.00;99803.28;5052902;28;20032;-85
2022/01/09 07:37:22;;;;;;;17.92;3.20;;;;;;;3.37;100.00;99803.38;5055329;28;20024;-89
2022/01/09 07:39:50;;;;;;;18.80;3.60;;;;;;;3.34;100.00;99811.09;5064336;28;20053;-89
2022/01/09 07:42:15;;;;;;;22.80;3.45;;;;;;;3.31;100.00;99806.00;5059242;28;20103;-89
2022/01/09 07:44:40;;;;;;;13.90;2.80;;;;;;;3.29;100.00;99816.25;5068439;28;20513;-89
2022/01/09 07:47:06;;;;;;;19.70;3.65;;;;;;;3.29;100.00;99812.84;5064815;28;20025;-88
2022/01/09 07:49:31;;;;;;;22.63;4.43;;;;;;;3.29;100.00;99830.78;5048396;28;20035;-90
2022/01/09 07:51:56;;;;;;;20.05;3.22;;;;;;;3.26;100.00;99838.50;5059990;28;20031;-89
2022/01/09 07:54:21;;;;;;;13.73;2.90;;;;;;;3.22;100.00;99837.66;5067535;28;20024;-90
2022/01/09 07:56:47;;;;;;;14.15;2.92;;;;;;;3.20;100.00;99836.00;5065600;28;20406;-90
2022/01/09 07:59:12;;;;;;;23.30;3.70;;;;;;;3.25;100.00;99841.94;5066436;28;20506;-88
2022/01/09 08:01:38;;;;;;;21.48;2.88;;;;;;;3.24;100.00;99853.03;5065765;28;20029;-87
2022/01/09 08:04:03;;;;;;;22.13;3.63;;;;;;;3.23;100.00;99851.31;5065010;28;20103;-86
2022/01/09 08:06:28;;;;;;;20.30;3.22;;;;;;;3.22;100.00;99857.31;5067412;28;20024;-87
2022/01/09 08:08:54;;;;;;;12.63;3.00;;;;;;;3.24;100.00;99853.88;5067748;28;20166;-83
2022/01/09 08:11:22;;;;;;;22.42;3.95;;;;;;;3.25;100.00;99859.84;5067477;28;20063;-87
2022/01/09 08:13:47;;;;;;;14.00;2.90;;;;;;;3.20;100.00;99866.75;5069297;28;20154;-86
2022/01/09 08:16:15;;;;;;;18.50;3.45;;;;;;;3.12;100.00;99874.47;5064721;28;20119;-86
2022/01/09 08:18:40;;;;;;;19.52;3.78;;;;;;;3.08;100.00;99881.31;5058119;28;20376;-87
2022/01/09 08:21:05;;;;;;;14.02;3.42;;;;;;;3.01;100.00;99881.38;5065680;28;20499;-88
2022/01/09 08:23:30;;;;;;;19.85;3.28;;;;;;;2.99;100.00;99884.00;5068469;28;20047;-86
2022/01/09 08:25:56;;;;;;;15.85;3.05;;;;;;;3.00;100.00;99887.41;5069173;28;20036;-84
2022/01/09 08:28:21;;;;;;;13.40;3.05;;;;;;;3.03;100.00;99890.78;5060515;28;20108;-87
2022/01/09 08:30:46;;;;;;;16.52;3.30;;;;;;;3.08;100.00;99895.84;5060077;28;20048;-86
2022/01/09 08:33:12;;;;;;;21.98;3.00;;;;;;;3.13;100.00;99896.66;5062366;28;20094;-86
2022/01/09 08:35:37;;;;;;;13.93;3.10;;;;;;;3.19;100.00;99901.72;5064972;28;20471;-87
2022/01/09 08:38:03;;;;;;;23.75;3.00;;;;;;;3.23;100.00;99902.53;5066840;28;20089;-86
2022/01/09 08:40:29;;;;;;;14.15;2.90;;;;;;;3.22;100.00;99903.41;5056539;28;20041;-86
2022/01/09 08:42:54;;;;;;;18.95;3.10;;;;;;;3.20;100.00;99902.59;5053552;28;20031;-86
2022/01/09 08:45:20;;;;;;;15.50;3.20;;;;;;;3.34;100.00;99911.00;5061425;28;20025;-86
2022/01/09 08:47:46;;;;;;;16.90;3.33;;;;;;;3.47;100.00;99910.00;5058132;28;20040;-86
2022/01/09 08:50:13;;;;;;;18.33;3.15;;;;;;;3.54;100.00;99911.63;5057754;28;20025;-86
2022/01/09 08:52:39;;;;;;;19.80;3.05;;;;;;;3.58;100.00;99918.41;5064848;28;20036;-86
2022/01/09 08:55:06;;;;;;;18.55;3.20;;;;;;;3.61;100.00;99928.66;5067737;28;20024;-90
2022/01/09 08:57:31;;;;;;;18.55;3.10;;;;;;;3.58;100.00;99924.41;5068885;28;20423;-88
2022/01/09 08:59:57;;;;;;;13.60;2.90;;;;;;;3.61;100.00;99925.25;5068266;28;20027;-89
2022/01/09 09:02:22;;;;;;;18.98;2.95;;;;;;;3.63;100.00;99937.16;5061234;28;20128;-90
2022/01/09 09:04:48;;;;;;;13.95;3.08;;;;;;;3.59;100.00;99938.06;5060554;28;20096;-89
2022/01/09 09:07:18;;;;;;;13.52;3.08;;;;;;;3.57;100.00;99950.03;5053423;28;20043;-90
2022/01/09 09:09:45;;;;;;;17.40;2.90;;;;;;;3.60;100.00;99946.59;5070454;28;20032;-88
2022/01/09 09:12:11;;;;;;;16.55;2.75;;;;;;;3.69;100.00;99951.59;5069049;28;20029;-89
2022/01/09 09:14:36;;;;;;;15.50;3.05;;;;;;;3.77;100.00;99955.78;5072919;28;20034;-89
2022/01/09 09:17:01;;;;;;;19.08;3.17;;;;;;;3.78;100.00;99962.63;5057309;28;20147;-89
2022/01/09 09:19:27;;;;;;;16.95;2.88;;;;;;;3.81;100.00;99972.00;5070199;28;20462;-89
2022/01/09 09:21:52;;;;;;;14.20;3.22;;;;;;;3.84;100.00;99971.97;5066581;28;20030;-89
2022/01/09 09:24:17;;;;;;;10.52;2.92;;;;;;;3.90;100.00;99975.31;5070646;28;20082;-92
2022/01/09 09:26:44;;;;;;;16.92;3.90;;;;;;;4.01;100.00;99987.19;5067141;28;20032;-87
2022/01/09 09:29:09;;;;;;;13.57;2.50;;;;;;;4.04;100.00;99987.97;5064313;28;20074;-87
2022/01/09 09:31:35;;;;;;;16.15;3.25;;;;;;;4.05;100.00;99983.69;5057236;28;20039;-88
2022/01/09 09:34:00;;;;;;;14.50;2.65;;;;;;;4.07;100.00;99995.66;5071899;28;20029;-87
2022/01/09 09:36:26;;;;;;;16.77;3.30;;;;;;;4.09;100.00;99995.63;5066789;28;20028;-87
2022/01/09 09:38:52;;;;;;;14.40;2.85;;;;;;;4.11;100.00;99994.72;5058081;28;20060;-87
2022/01/09 09:41:22;;;;;;;15.48;2.58;;;;;;;4.14;100.00;99999.00;5058778;28;20025;-87
2022/01/09 09:43:48;;;;;;;15.75;2.92;;;;;;;4.15;100.00;99990.44;5063074;28;20024;-90
2022/01/09 09:46:14;;;;;;;11.02;2.70;;;;;;;4.21;100.00;99998.91;5060928;28;20024;-85
2022/01/09 09:48:39;;;;;;;11.80;2.67;;;;;;;4.30;100.00;100006.47;5070417;28;20043;-90
2022/01/09 09:51:04;;;;;;;14.27;3.10;;;;;;;4.43;100.00;100017.47;5060471;28;20036;-89
2022/01/09 09:53:29;;;;;;;14.38;3.03;;;;;;;4.49;100.00;100011.41;5062869;28;20032;-86
2022/01/09 09:55:55;;;;;;;14.10;3.60;;;;;;;4.53;100.00;100013.06;5070513;28;20163;-87
2022/01/09 09:58:22;;;;;;;16.00;3.67;;;;;;;4.53;100.00;100013.06;5067042;28;20028;-85
2022/01/09 10:00:55;;;;;;;14.60;2.70;;;;;;;4.51;100.00;100020.75;5062555;28;20068;-86
2022/01/09 10:03:32;;;;;;;11.00;2.77;;;;;;;4.57;100.00;100018.13;5062168;28;20553;-83
2022/01/09 10:05:58;;;;;;;15.27;2.85;;;;;;;4.63;100.00;100017.22;5052591;28;20025;-84
2022/01/09 10:08:36;;;;;;;26.27;3.13;;;;;;;4.74;99.92;100025.63;5051075;28;20071;-84
2022/01/09 10:11:17;;;;;;;15.32;2.78;;;;;;;4.86;99.90;100027.16;5048414;28;20029;-88
2022/01/09 10:13:44;;;;;;;18.92;3.80;;;;;;;4.87;99.05;100026.28;5066633;28;20254;-87
2022/01/09 10:16:10;;;;;;;13.23;2.97;;;;;;;4.81;98.76;100034.94;5063016;28;20028;-87
2022/01/09 10:18:44;;;;;;;14.70;2.75;;;;;;;4.74;98.34;100030.75;5070155;28;20032;-84
2022/01/09 10:21:15;;;;;;;16.23;2.80;;;;;;;4.60;98.16;100038.63;5058109;28;20025;-87
2022/01/09 10:24:02;;;;;;;21.80;3.08;;;;;;;4.52;99.42;100037.84;5062438;28;20071;-86
2022/01/09 10:26:35;;;;;;;17.80;2.90;;;;;;;4.47;98.52;100057.59;5055571;28;20032;-87
2022/01/09 10:29:03;;;;;;;14.90;2.63;;;;;;;4.38;99.62;100044.88;5060662;28;20039;-87
2022/01/09 10:31:28;;;;;;;9.75;2.15;;;;;;;4.34;99.48;100043.22;5069127;28;20063;-88
2022/01/09 10:34:08;;;;;;;11.38;2.38;;;;;;;4.33;100.00;100044.09;5070535;28;20059;-85
2022/01/09 10:36:39;;;;;;;19.52;2.67;;;;;;;4.33;99.68;100050.06;5070793;28;20024;-87
2022/01/09 10:39:16;;;;;;;14.48;3.15;;;;;;;4.23;100.00;100050.19;5070557;28;20499;-89
2022/01/09 10:42:03;;;;;;;15.23;2.90;;;;;;;4.20;100.00;100058.75;5068878;28;20051;-86
2022/01/09 10:44:34;;;;;;;16.55;2.55;;;;;;;4.27;100.00;100070.66;5065716;28;20135;-88
2022/01/09 10:47:12;;;;;;;19.88;3.00;;;;;;;4.30;100.00;100068.03;5065393;28;20028;-87
2022/01/09 10:49:49;;;;;;;15.30;3.00;;;;;;;4.38;100.00;100065.41;5064283;28;20138;-89
2022/01/09 10:52:17;;;;;;;14.98;2.60;;;;;;;4.39;100.00;100069.66;5064422;28;20024;-89
2022/01/09 10:54:46;;;;;;;16.23;2.60;;;;;;;4.42;100.00;100066.22;5066658;28;20029;-89
2022/01/09 10:57:21;;;;;;;11.15;2.58;;;;;;;4.49;100.00;100068.72;5053315;28;20035;-88
2022/01/09 10:59:48;;;;;;;14.38;2.80;;;;;;;4.54;100.00;100074.63;5049152;28;20021;-89
2022/01/09 11:02:14;;;;;;;15.85;2.80;;;;;;;4.59;100.00;100075.41;5068205;28;20025;-89
2022/01/09 11:04:44;;;;;;;12.55;2.65;;;;;;;4.75;100.00;100073.53;5069940;28;20021;-88
2022/01/09 11:07:11;;;;;;;20.27;3.05;;;;;;;4.89;100.00;100078.47;5069737;28;20031;-89
2022/01/09 11:09:38;;;;;;;19.65;3.70;;;;;;;4.94;100.00;100092.94;5067414;28;20193;-89
2022/01/09 11:12:07;;;;;;;11.93;2.90;;;;;;;4.98;100.00;100091.22;5060121;28;20029;-89
2022/01/09 11:14:36;;;;;;;21.92;3.38;;;;;;;5.03;100.00;100087.72;5050318;28;20452;-88
2022/01/09 11:17:04;;;;;;;19.92;3.67;;;;;;;5.21;100.00;100096.03;5048924;28;20021;-89
2022/01/09 11:19:30;;;;;;;24.40;3.30;;;;;;;5.38;100.00;100104.34;5061040;28;20078;-88
2022/01/09 11:21:59;;;;;;;14.32;3.10;;;;;;;5.45;100.00;100095.69;5050374;28;20028;-89